createdAt,value
2019-02-24T00:04:20.937Z,2.70
2019-02-24T00:06:47.175Z,2.77
2019-02-24T00:09:13.411Z,3.13
2019-02-24T00:11:39.636Z,3.30
2019-02-24T00:14:05.886Z,4.00
2019-02-24T00:16:32.119Z,3.63
2019-02-24T00:18:58.363Z,2.70
2019-02-24T00:21:24.593Z,3.77
2019-02-24T00:23:50.840Z,4.20
2019-02-24T00:26:17.072Z,3.13
2019-02-24T00:28:43.320Z,3.80
2019-02-24T00:31:09.543Z,3.67
2019-02-24T00:33:35.797Z,2.73
2019-02-24T00:36:02.051Z,2.87
2019-02-24T00:38:28.291Z,3.03
2019-02-24T00:40:54.511Z,2.43
2019-02-24T00:43:20.748Z,2.53
2019-02-24T00:45:46.976Z,3.23
2019-02-24T00:48:13.212Z,3.40
2019-02-24T00:50:39.443Z,2.97
2019-02-24T00:53:05.665Z,2.67
2019-02-24T00:55:31.919Z,2.83
2019-02-24T00:57:58.145Z,2.87
2019-02-24T01:00:24.389Z,3.53
2019-02-24T01:02:50.621Z,2.50
2019-02-24T01:05:16.869Z,2.70
2019-02-24T01:10:30.805Z,3.27
2019-02-24T01:12:57.040Z,3.27
2019-02-24T01:15:23.291Z,2.77
2019-02-24T01:17:49.528Z,2.53
2019-02-24T01:20:15.783Z,2.83
2019-02-24T01:22:42.013Z,3.00
2019-02-24T01:25:08.260Z,2.43
2019-02-24T01:27:34.486Z,3.10
2019-02-24T01:30:42.036Z,2.60
2019-02-24T01:33:08.293Z,3.00
2019-02-24T01:35:34.539Z,2.63
2019-02-24T01:38:00.767Z,2.23
2019-02-24T01:40:27.017Z,2.67
2019-02-24T01:42:53.247Z,2.70
2019-02-24T01:45:19.496Z,2.17
2019-02-24T01:47:45.723Z,3.33
2019-02-24T01:50:11.964Z,2.63
2019-02-24T01:52:38.191Z,2.13
2019-02-24T01:55:04.457Z,3.60
2019-02-24T01:57:30.684Z,2.37
2019-02-24T01:59:56.936Z,2.47
2019-02-24T02:02:23.160Z,3.13
2019-02-24T02:04:49.414Z,2.70
2019-02-24T02:07:15.656Z,2.43
2019-02-24T02:09:41.905Z,2.50
2019-02-24T02:12:08.151Z,2.43
2019-02-24T02:14:34.382Z,2.43
2019-02-24T02:17:00.629Z,2.47
2019-02-24T02:19:26.854Z,2.33
2019-02-24T02:21:53.087Z,2.60
2019-02-24T02:24:19.325Z,3.13
2019-02-24T02:26:45.579Z,3.20
2019-02-24T02:29:11.820Z,2.67
2019-02-24T02:31:38.070Z,2.60
2019-02-24T02:34:04.304Z,2.90
2019-02-24T02:36:30.545Z,3.20
2019-02-24T02:38:56.785Z,2.73
2019-02-24T02:41:23.027Z,3.40
2019-02-24T02:43:49.263Z,2.83
2019-02-24T02:46:15.519Z,2.93
2019-02-24T02:48:41.759Z,2.80
2019-02-24T02:51:49.564Z,2.90
2019-02-24T02:54:15.822Z,2.60
2019-02-24T02:56:42.072Z,2.60
2019-02-24T02:59:08.335Z,2.23
2019-02-24T03:01:34.580Z,2.40
2019-02-24T03:04:00.820Z,2.87
2019-02-24T03:09:00.716Z,2.50
2019-02-24T03:11:26.968Z,2.47
2019-02-24T03:13:53.202Z,3.57
2019-02-24T03:18:53.659Z,2.37
2019-02-24T03:21:19.900Z,2.47
2019-02-24T03:23:46.180Z,2.63
2019-02-24T03:26:12.404Z,3.23
2019-02-24T03:28:38.657Z,3.20
2019-02-24T03:31:04.895Z,3.77
2019-02-24T03:33:31.137Z,2.70
2019-02-24T03:35:57.374Z,2.90
2019-02-24T03:38:23.618Z,3.60
2019-02-24T03:40:49.855Z,2.93
2019-02-24T03:43:16.203Z,2.73
2019-02-24T03:45:42.436Z,3.37
2019-02-24T03:48:08.680Z,2.93
2019-02-24T03:50:34.915Z,2.53
2019-02-24T03:53:01.159Z,4.03
2019-02-24T03:55:27.418Z,2.50
2019-02-24T03:57:53.672Z,2.70
2019-02-24T04:00:19.910Z,2.43
2019-02-24T04:02:46.153Z,2.97
2019-02-24T04:05:12.385Z,2.77
2019-02-24T04:07:38.638Z,3.00
2019-02-24T04:13:18.353Z,3.07
2019-02-24T04:15:44.592Z,2.60
2019-02-24T04:18:10.849Z,3.50
2019-02-24T04:20:37.083Z,9.23
2019-02-24T04:23:03.343Z,3.47
2019-02-24T04:25:29.788Z,3.90
2019-02-24T04:27:56.052Z,3.57
2019-02-24T04:30:22.292Z,2.53
2019-02-24T04:32:48.531Z,3.10
2019-02-24T04:35:14.777Z,3.43
2019-02-24T04:37:41.010Z,2.83
2019-02-24T04:40:07.270Z,3.20
2019-02-24T04:42:33.506Z,3.07
2019-02-24T04:44:59.765Z,4.00
2019-02-24T04:47:26.005Z,3.87
2019-02-24T04:49:52.257Z,3.70
2019-02-24T04:52:18.494Z,3.40
2019-02-24T04:54:44.739Z,3.60
2019-02-24T04:57:10.979Z,3.27
2019-02-24T04:59:37.223Z,3.80
2019-02-24T05:02:03.452Z,3.47
2019-02-24T05:04:29.690Z,3.20
2019-02-24T05:06:55.929Z,4.30
2019-02-24T05:09:22.174Z,9.30
2019-02-24T05:11:48.416Z,6.33
2019-02-24T05:14:14.663Z,3.20
2019-02-24T05:16:40.891Z,3.07
2019-02-24T05:19:07.141Z,3.97
2019-02-24T05:21:33.380Z,3.17
2019-02-24T05:23:59.628Z,2.67
2019-02-24T05:26:25.879Z,6.13
2019-02-24T05:28:52.138Z,3.07
2019-02-24T05:31:18.387Z,2.90
2019-02-24T05:33:44.616Z,3.23
2019-02-24T05:36:10.864Z,3.10
2019-02-24T05:38:37.088Z,3.87
2019-02-24T05:41:03.341Z,3.63
2019-02-24T05:43:29.579Z,3.23
2019-02-24T05:45:55.818Z,3.07
2019-02-24T05:48:22.057Z,2.97
2019-02-24T05:50:48.323Z,2.97
2019-02-24T05:53:14.563Z,3.40
2019-02-24T05:55:40.805Z,3.37
2019-02-24T05:58:07.063Z,2.30
2019-02-24T06:00:33.313Z,4.73
2019-02-24T06:02:59.546Z,2.83
2019-02-24T06:05:25.818Z,13.53
2019-02-24T06:07:52.066Z,3.20
2019-02-24T06:10:18.382Z,11.30
2019-02-24T06:12:44.663Z,3.77
2019-02-24T06:15:10.916Z,3.90
2019-02-24T06:17:37.153Z,4.40
2019-02-24T06:20:03.388Z,3.23
2019-02-24T06:22:29.618Z,3.27
2019-02-24T06:24:55.864Z,3.70
2019-02-24T06:27:22.087Z,3.37
2019-02-24T06:29:48.344Z,2.80
2019-02-24T06:32:14.588Z,2.50
2019-02-24T06:34:40.839Z,2.73
2019-02-24T06:37:07.077Z,3.03
2019-02-24T06:39:33.314Z,2.50
2019-02-24T06:41:59.555Z,3.10
2019-02-24T06:44:25.798Z,2.70
2019-02-24T06:46:52.024Z,2.47
2019-02-24T06:49:18.262Z,2.40
2019-02-24T06:51:44.507Z,2.50
2019-02-24T06:54:10.735Z,2.47
2019-02-24T06:56:36.977Z,3.00
2019-02-24T06:59:03.208Z,2.37
2019-02-24T07:01:29.454Z,2.13
2019-02-24T07:03:55.687Z,2.60
2019-02-24T07:06:21.920Z,2.40
2019-02-24T07:12:01.896Z,2.00
2019-02-24T07:14:28.128Z,2.23
2019-02-24T07:16:54.372Z,2.60
2019-02-24T07:19:20.621Z,2.83
2019-02-24T07:21:46.874Z,3.13
2019-02-24T07:24:13.110Z,2.93
2019-02-24T07:26:39.354Z,2.60
2019-02-24T07:29:05.607Z,2.80
2019-02-24T07:31:31.848Z,2.77
2019-02-24T07:33:58.087Z,2.70
2019-02-24T07:36:24.312Z,2.70
2019-02-24T07:38:50.557Z,3.77
2019-02-24T07:41:16.784Z,2.20
2019-02-24T07:43:43.025Z,2.27
2019-02-24T07:46:09.261Z,2.17
2019-02-24T07:48:35.509Z,2.10
2019-02-24T07:51:01.741Z,1.97
2019-02-24T07:53:28.006Z,2.10
2019-02-24T07:55:54.233Z,2.13
2019-02-24T07:58:20.490Z,2.17
2019-02-24T08:00:46.725Z,2.00
2019-02-24T08:03:12.976Z,2.40
2019-02-24T08:05:39.210Z,2.03
2019-02-24T08:08:05.447Z,1.70
2019-02-24T08:10:31.679Z,2.10
2019-02-24T08:12:57.932Z,2.33
2019-02-24T08:15:24.166Z,2.20
2019-02-24T08:17:50.417Z,2.23
2019-02-24T08:20:16.656Z,2.70
2019-02-24T08:22:42.894Z,2.90
2019-02-24T08:25:09.135Z,2.07
2019-02-24T08:27:35.396Z,2.67
2019-02-24T08:30:02.584Z,1.87
2019-02-24T08:32:29.910Z,1.80
2019-02-24T08:34:56.166Z,2.03
2019-02-24T08:37:22.403Z,2.20
2019-02-24T08:39:48.663Z,1.70
2019-02-24T08:42:14.888Z,1.60
2019-02-24T08:44:41.140Z,1.97
2019-02-24T08:47:07.370Z,1.60
2019-02-24T08:49:33.614Z,2.10
2019-02-24T08:51:59.839Z,1.70
2019-02-24T08:54:26.089Z,1.93
2019-02-24T08:56:52.321Z,1.30
2019-02-24T08:59:18.565Z,1.20
2019-02-24T09:01:44.792Z,1.67
2019-02-24T09:04:11.033Z,1.37
2019-02-24T09:06:37.282Z,2.00
2019-02-24T09:09:03.633Z,2.00
2019-02-24T09:11:29.868Z,1.53
2019-02-24T09:13:56.133Z,1.57
2019-02-24T09:16:22.373Z,1.37
2019-02-24T09:18:48.623Z,0.90
2019-02-24T09:21:14.860Z,1.30
2019-02-24T09:23:41.092Z,1.67
2019-02-24T09:26:07.445Z,1.33
2019-02-24T09:28:33.673Z,1.10
2019-02-24T09:31:01.126Z,2.73
2019-02-24T09:33:28.058Z,0.90
2019-02-24T09:35:54.303Z,1.63
2019-02-24T09:38:20.537Z,1.20
2019-02-24T09:40:46.797Z,1.23
2019-02-24T09:43:13.018Z,1.00
2019-02-24T09:45:39.264Z,1.23
2019-02-24T09:48:05.490Z,0.90
2019-02-24T09:50:31.748Z,0.73
2019-02-24T09:52:57.969Z,1.00
2019-02-24T09:55:24.213Z,0.80
2019-02-24T09:57:50.447Z,0.80
2019-02-24T10:00:16.688Z,0.57
2019-02-24T10:02:42.924Z,0.40
2019-02-24T10:05:09.163Z,0.63
2019-02-24T10:07:35.399Z,0.50
2019-02-24T10:10:01.668Z,0.70
2019-02-24T10:12:27.889Z,0.60
2019-02-24T10:14:54.124Z,0.70
2019-02-24T10:17:20.353Z,0.70
2019-02-24T10:19:46.571Z,0.60
2019-02-24T10:22:12.813Z,0.77
2019-02-24T10:24:39.046Z,1.20
2019-02-24T10:27:05.292Z,0.60
2019-02-24T10:29:31.540Z,0.53
2019-02-24T10:31:57.775Z,1.07
2019-02-24T10:34:24.004Z,1.00
2019-02-24T10:36:50.240Z,0.50
2019-02-24T10:39:16.468Z,0.70
2019-02-24T10:41:42.709Z,0.90
2019-02-24T10:44:08.939Z,0.93
2019-02-24T10:46:35.177Z,0.87
2019-02-24T10:49:03.692Z,0.80
2019-02-24T10:51:29.565Z,0.77
2019-02-24T10:53:55.795Z,0.97
2019-02-24T10:56:22.036Z,0.93
2019-02-24T10:58:48.264Z,0.73
2019-02-24T11:01:14.512Z,0.87
2019-02-24T11:03:40.751Z,0.90
2019-02-24T11:06:06.994Z,0.83
2019-02-24T11:08:33.238Z,1.00
2019-02-24T11:11:19.229Z,1.20
2019-02-24T11:13:45.497Z,0.93
2019-02-24T11:16:11.700Z,0.87
2019-02-24T11:18:37.950Z,0.90
2019-02-24T11:21:04.175Z,1.00
2019-02-24T11:23:30.427Z,0.77
2019-02-24T11:25:56.661Z,1.00
2019-02-24T11:28:22.914Z,1.20
2019-02-24T11:30:49.158Z,0.67
2019-02-24T11:33:15.404Z,0.70
2019-02-24T11:35:41.631Z,0.87
2019-02-24T11:38:07.864Z,0.80
2019-02-24T11:40:34.096Z,1.30
2019-02-24T11:43:00.340Z,1.03
2019-02-24T11:45:26.572Z,1.17
2019-02-24T11:47:52.820Z,1.00
2019-02-24T11:50:19.052Z,1.30
2019-02-24T11:52:45.287Z,0.77
2019-02-24T11:55:11.536Z,0.73
2019-02-24T11:57:37.881Z,1.00
2019-02-24T12:03:17.489Z,0.93
2019-02-24T12:05:43.730Z,0.93
2019-02-24T12:08:09.955Z,0.60
2019-02-24T12:10:36.188Z,0.50
2019-02-24T12:13:02.433Z,0.80
2019-02-24T12:15:28.659Z,1.00
2019-02-24T12:17:54.903Z,0.80
2019-02-24T12:20:21.142Z,0.87
2019-02-24T12:22:47.395Z,0.80
2019-02-24T12:25:13.624Z,0.70
2019-02-24T12:27:39.856Z,1.60
2019-02-24T12:30:47.418Z,1.07
2019-02-24T12:33:13.660Z,1.20
2019-02-24T12:35:39.901Z,1.10
2019-02-24T12:38:06.148Z,0.73
2019-02-24T12:40:32.377Z,0.83
2019-02-24T12:42:58.610Z,1.03
2019-02-24T12:45:24.866Z,0.90
2019-02-24T12:47:51.111Z,1.27
2019-02-24T12:50:17.470Z,1.20
2019-02-24T12:52:43.700Z,1.10
2019-02-24T12:55:09.938Z,1.33
2019-02-24T12:57:36.185Z,1.00
2019-02-24T13:02:59.218Z,1.30
2019-02-24T13:05:25.469Z,0.90
2019-02-24T13:07:51.699Z,1.13
2019-02-24T13:10:59.251Z,1.83
2019-02-24T13:13:25.486Z,1.53
2019-02-24T13:15:51.735Z,1.30
2019-02-24T13:18:17.966Z,2.63
2019-02-24T13:20:44.229Z,1.20
2019-02-24T13:23:10.453Z,1.17
2019-02-24T13:25:36.705Z,1.10
2019-02-24T13:28:02.937Z,1.90
2019-02-24T13:30:29.192Z,0.83
2019-02-24T13:32:55.427Z,1.53
2019-02-24T13:35:21.694Z,1.00
2019-02-24T13:37:48.010Z,1.10
2019-02-24T13:40:55.557Z,1.20
2019-02-24T13:43:21.786Z,1.00
2019-02-24T13:45:48.029Z,1.23
2019-02-24T13:48:14.272Z,0.80
2019-02-24T13:50:40.512Z,0.83
2019-02-24T13:53:06.739Z,1.40
2019-02-24T13:55:32.984Z,1.00
2019-02-24T13:57:59.215Z,1.00
2019-02-24T14:00:25.461Z,1.30
2019-02-24T14:02:51.692Z,1.00
2019-02-24T14:05:17.941Z,0.90
2019-02-24T14:07:44.182Z,0.80
2019-02-24T14:10:51.725Z,0.80
2019-02-24T14:13:17.958Z,1.33
2019-02-24T14:15:44.206Z,1.17
2019-02-24T14:18:10.436Z,1.00
2019-02-24T14:20:36.679Z,1.07
2019-02-24T14:23:02.921Z,1.37
2019-02-24T14:25:29.171Z,1.53
2019-02-24T14:27:55.431Z,1.27
2019-02-24T14:30:21.686Z,0.90
2019-02-24T14:32:47.924Z,0.80
2019-02-24T14:35:34.029Z,1.00
2019-02-24T14:38:00.262Z,2.57
2019-02-24T14:40:26.495Z,1.03
2019-02-24T14:42:52.739Z,0.90
2019-02-24T14:48:19.784Z,1.00
2019-02-24T14:50:46.023Z,0.90
2019-02-24T14:53:12.267Z,1.23
2019-02-24T14:55:39.525Z,1.40
2019-02-24T14:58:06.660Z,1.47
2019-02-24T15:00:32.900Z,1.07
2019-02-24T15:02:59.141Z,1.10
2019-02-24T15:05:25.373Z,1.77
2019-02-24T15:07:51.611Z,1.50
2019-02-24T15:13:31.628Z,1.27
2019-02-24T15:15:57.855Z,1.17
2019-02-24T15:18:24.096Z,0.77
2019-02-24T15:20:50.325Z,1.30
2019-02-24T15:23:16.572Z,1.20
2019-02-24T15:25:42.808Z,1.13
2019-02-24T15:28:09.112Z,0.80
2019-02-24T15:33:49.434Z,1.10
2019-02-24T15:36:15.664Z,1.37
2019-02-24T15:38:41.911Z,1.37
2019-02-24T15:41:08.140Z,1.00
2019-02-24T15:43:34.380Z,1.13
2019-02-24T15:46:00.616Z,1.50
2019-02-24T15:48:26.862Z,1.47
2019-02-24T15:50:53.096Z,1.40
2019-02-24T15:53:19.332Z,1.17
2019-02-24T15:55:45.563Z,0.90
2019-02-24T15:58:11.828Z,1.17
2019-02-24T16:00:38.066Z,1.43
2019-02-24T16:03:04.315Z,1.47
2019-02-24T16:05:30.672Z,0.97
2019-02-24T16:07:56.911Z,1.00
2019-02-24T16:10:23.136Z,1.10
2019-02-24T16:12:49.368Z,1.23
2019-02-24T16:15:56.913Z,0.93
2019-02-24T16:18:23.166Z,0.93
2019-02-24T16:20:49.413Z,1.10
2019-02-24T16:23:15.631Z,0.90
2019-02-24T16:25:41.879Z,0.97
2019-02-24T16:28:08.136Z,1.17
2019-02-24T16:30:34.375Z,1.20
2019-02-24T16:33:00.626Z,1.10
2019-02-24T16:35:26.889Z,1.00
2019-02-24T16:37:53.116Z,1.17
2019-02-24T16:41:00.663Z,1.00
2019-02-24T16:43:27.018Z,0.70
2019-02-24T16:45:53.272Z,0.80
2019-02-24T16:48:19.503Z,1.00
2019-02-24T16:50:45.771Z,1.77
2019-02-24T16:53:12.004Z,1.10
2019-02-24T16:55:38.251Z,1.33
2019-02-24T16:58:04.482Z,2.20
2019-02-24T17:00:30.727Z,5.40
2019-02-24T17:02:56.955Z,1.40
2019-02-24T17:05:23.201Z,1.10
2019-02-24T17:07:49.488Z,0.80
2019-02-24T17:10:57.092Z,1.10
2019-02-24T17:13:23.360Z,0.70
2019-02-24T17:15:49.607Z,0.83
2019-02-24T17:18:15.835Z,0.70
2019-02-24T17:20:42.076Z,0.83
2019-02-24T17:23:08.300Z,0.73
2019-02-24T17:25:34.544Z,0.70
2019-02-24T17:28:00.767Z,0.80
2019-02-24T17:30:27.015Z,0.70
2019-02-24T17:32:53.276Z,0.43
2019-02-24T17:35:19.611Z,1.00
2019-02-24T17:37:45.882Z,0.30
2019-02-24T17:40:31.884Z,0.60
2019-02-24T17:42:58.167Z,0.60
2019-02-24T17:45:24.406Z,0.70
2019-02-24T17:47:50.632Z,1.07
2019-02-24T17:50:58.223Z,1.27
2019-02-24T17:53:24.454Z,0.63
2019-02-24T17:55:50.683Z,0.40
2019-02-24T17:58:16.924Z,1.00
2019-02-24T18:01:02.916Z,0.50
2019-02-24T18:03:29.280Z,0.60
2019-02-24T18:05:55.511Z,0.70
2019-02-24T18:08:28.051Z,0.47
2019-02-24T18:10:49.937Z,0.87
2019-02-24T18:13:16.177Z,0.50
2019-02-24T18:15:42.406Z,0.40
2019-02-24T18:18:08.644Z,0.40
2019-02-24T18:20:34.883Z,0.20
2019-02-24T18:23:01.129Z,0.60
2019-02-24T18:25:27.352Z,0.40
2019-02-24T18:27:53.588Z,0.23
2019-02-24T18:30:39.576Z,0.30
2019-02-24T18:33:05.831Z,0.30
2019-02-24T18:35:32.065Z,0.23
2019-02-24T18:37:58.307Z,0.43
2019-02-24T18:40:24.540Z,0.30
2019-02-24T18:42:59.374Z,0.30
2019-02-24T18:45:18.937Z,0.20
2019-02-24T18:47:45.187Z,0.30
2019-02-24T18:50:31.210Z,0.30
2019-02-24T18:52:57.456Z,0.30
2019-02-24T18:55:23.707Z,0.30
2019-02-24T18:57:49.944Z,0.30
2019-02-24T19:00:57.484Z,0.60
2019-02-24T19:03:23.744Z,0.37
2019-02-24T19:05:49.981Z,0.30
2019-02-24T19:08:16.244Z,0.30
2019-02-24T19:10:42.488Z,0.37
2019-02-24T19:13:08.745Z,0.20
2019-02-24T19:15:34.987Z,0.20
2019-02-24T19:18:01.227Z,0.30
2019-02-24T19:20:27.455Z,0.37
2019-02-24T19:22:53.688Z,0.50
2019-02-24T19:25:19.934Z,0.40
2019-02-24T19:27:46.169Z,0.90
2019-02-24T19:30:32.170Z,0.40
2019-02-24T19:32:58.440Z,0.30
2019-02-24T19:35:24.693Z,0.43
2019-02-24T19:37:50.932Z,0.27
2019-02-24T19:40:58.488Z,0.50
2019-02-24T19:43:24.716Z,0.40
2019-02-24T19:45:50.961Z,0.50
2019-02-24T19:48:17.197Z,0.70
2019-02-24T19:50:43.441Z,0.50
2019-02-24T19:53:09.671Z,0.73
2019-02-24T19:55:35.964Z,0.73
2019-02-24T19:58:02.203Z,0.43
2019-02-24T20:00:28.438Z,0.60
2019-02-24T20:02:54.679Z,0.50
2019-02-24T20:06:02.220Z,0.50
2019-02-24T20:08:28.468Z,0.30
2019-02-24T20:10:54.709Z,0.40
2019-02-24T20:13:20.935Z,0.60
2019-02-24T20:15:47.181Z,0.30
2019-02-24T20:18:13.408Z,0.40
2019-02-24T20:20:39.661Z,0.97
2019-02-24T20:23:05.900Z,0.67
2019-02-24T20:25:32.130Z,0.40
2019-02-24T20:27:58.358Z,0.40
2019-02-24T20:33:25.260Z,0.40
2019-02-24T20:35:51.505Z,0.73
2019-02-24T20:38:17.746Z,0.70
2019-02-24T20:40:44.004Z,0.90
2019-02-24T20:43:10.219Z,0.60
2019-02-24T20:45:36.463Z,0.57
2019-02-24T20:48:02.694Z,0.67
2019-02-24T20:50:48.687Z,0.90
2019-02-24T20:53:14.936Z,0.53
2019-02-24T20:55:41.183Z,0.57
2019-02-24T20:58:07.417Z,0.70
2019-02-24T21:01:14.974Z,0.83
2019-02-24T21:03:41.246Z,1.10
2019-02-24T21:06:07.481Z,0.90
2019-02-24T21:08:33.720Z,0.80
2019-02-24T21:10:59.964Z,0.70
2019-02-24T21:13:26.194Z,1.13
2019-02-24T21:15:52.445Z,0.60
2019-02-24T21:18:18.692Z,0.80
2019-02-24T21:20:44.922Z,0.97
2019-02-24T21:23:11.153Z,0.80
2019-02-24T21:25:37.378Z,0.60
2019-02-24T21:28:03.615Z,0.60
2019-02-24T21:30:31.789Z,0.60
2019-02-24T21:32:58.026Z,0.50
2019-02-24T21:35:24.256Z,0.80
2019-02-24T21:37:50.497Z,0.50
2019-02-24T21:40:58.078Z,0.63
2019-02-24T21:43:24.323Z,0.60
2019-02-24T21:45:50.553Z,1.00
2019-02-24T21:48:16.800Z,0.53
2019-02-24T21:50:43.030Z,0.60
2019-02-24T21:53:09.275Z,0.60
2019-02-24T21:55:35.504Z,0.80
2019-02-24T21:58:01.743Z,0.60
2019-02-24T22:03:35.343Z,0.80
2019-02-24T22:06:01.578Z,0.73
2019-02-24T22:08:27.817Z,0.70
2019-02-24T22:10:54.044Z,0.80
2019-02-24T22:13:20.299Z,0.63
2019-02-24T22:15:46.533Z,0.90
2019-02-24T22:18:12.780Z,0.57
2019-02-24T22:20:39.003Z,0.70
2019-02-24T22:23:05.242Z,0.80
2019-02-24T22:25:31.473Z,0.60
2019-02-24T22:27:57.715Z,0.73
2019-02-24T22:30:23.948Z,0.73
2019-02-24T22:32:50.188Z,0.67
2019-02-24T22:35:16.429Z,0.60
2019-02-24T22:37:42.669Z,0.67
2019-02-24T22:43:22.650Z,0.80
2019-02-24T22:45:55.767Z,0.97
2019-02-24T22:48:22.006Z,0.90
2019-02-24T22:50:48.257Z,0.80
2019-02-24T22:53:14.501Z,1.17
2019-02-24T22:55:40.736Z,0.60
2019-02-24T22:58:06.992Z,0.73
2019-02-24T23:01:14.541Z,0.93
2019-02-24T23:03:40.788Z,1.03
2019-02-24T23:06:07.016Z,1.10
2019-02-24T23:08:33.255Z,1.00
2019-02-24T23:10:59.488Z,0.90
2019-02-24T23:13:25.735Z,1.20
2019-02-24T23:15:51.976Z,0.90
2019-02-24T23:18:18.309Z,1.77
2019-02-24T23:20:44.553Z,0.93
2019-02-24T23:23:10.774Z,0.77
2019-02-24T23:25:37.011Z,0.97
2019-02-24T23:28:03.238Z,1.03
2019-02-24T23:30:29.494Z,1.43
2019-02-24T23:32:55.731Z,1.13
2019-02-24T23:35:21.999Z,1.60
2019-02-24T23:37:48.229Z,1.30
2019-02-24T23:40:14.466Z,1.17
2019-02-24T23:42:40.711Z,1.37
2019-02-24T23:45:48.261Z,1.30
2019-02-24T23:48:14.496Z,1.00
2019-02-24T23:50:40.738Z,1.17
2019-02-24T23:53:06.967Z,1.53
2019-02-24T23:55:33.215Z,1.37
2019-02-24T23:57:59.448Z,1.20
